Station Historical Data
Daily Summary for April 27, 2017 Units:  English    Metric   Both
« Previous Day
Next Day »
Daily Weekly Monthly Yearly Custom
  High: Low: Average:
Temperature: 78.4 °F 62.5 °F 68.1 °F
Dew Point: 70.1 °F 55.2 °F 59.9 °F
Humidity: 89% 65% 75%
Wind Speed: 1.0mph 0.0mph 0mph
Wind Gust: 5.0mph - -
Wind- - NW
Pressure: 29.90 in 29.73 in -
Precipitation: 0.01 in    
Historical Graphs
 
 
Tabular Data for April 27, 2017
Time Temperature Dew Point Pressure Wind Wind Speed Wind Gust Humidity Rainfall Rate (Hourly) solar Conditions
00:00 68.4 °F 57.9 °F 29.80 in Calm   1.0 mph 69% 0.00 in WeatherDisplay:10.37 W/m2 SCT
00:15 67.9 °F 57.4 °F 29.79 in Calm     69% 0.00 in WeatherDisplay:10.37 W/m2 SCT
00:30 67.4 °F 57.3 °F 29.79 in Calm   1.0 mph 70% 0.00 in WeatherDisplay:10.37 W/m2 SCT
00:45 67.1 °F 57.0 °F 29.80 in Calm     70% 0.00 in WeatherDisplay:10.37 W/m2 SCT
01:00 66.2 °F 56.9 °F 29.79 in Calm     72% 0.00 in WeatherDisplay:10.37 W/m2 SCT
01:15 65.8 °F 56.5 °F 29.79 in Calm     72% 0.00 in WeatherDisplay:10.37 W/m2 SCT
01:30 65.5 °F 56.3 °F 29.80 in Calm     72% 0.00 in WeatherDisplay:10.37 W/m2 SCT
01:45 65.2 °F 56.7 °F 29.81 in Calm     74% 0.00 in WeatherDisplay:10.37 W/m2 SCT
02:00 64.5 °F 56.8 °F 29.80 in Calm   1.0 mph 76% 0.00 in WeatherDisplay:10.37 W/m2 SCT
02:15 64.4 °F 56.6 °F 29.79 in Calm   1.0 mph 76% 0.00 in WeatherDisplay:10.37 W/m2 SCT
02:30 65.1 °F 56.3 °F 29.79 in Calm   1.0 mph 73% 0.00 in WeatherDisplay:10.37 W/m2 SCT
02:45 65.4 °F 56.5 °F 29.78 in Calm   1.0 mph 73% 0.00 in WeatherDisplay:10.37 W/m2 SCT
03:00 65.4 °F 56.5 °F 29.78 in Calm   1.0 mph 73% 0.00 in WeatherDisplay:10.37 W/m2 SCT
03:15 65.2 °F 56.3 °F 29.78 in Calm   1.0 mph 73% 0.00 in WeatherDisplay:10.37 W/m2 SCT
03:30 64.4 °F 55.2 °F 29.77 in Calm     72% 0.00 in WeatherDisplay:10.37 W/m2 SCT
03:45 64.4 °F 55.2 °F 29.77 in Calm     72% 0.00 in WeatherDisplay:10.37 W/m2 SCT
04:00 64.4 °F 55.2 °F 29.77 in Calm     72% 0.00 in WeatherDisplay:10.37 W/m2 SCT
04:15 64.4 °F 55.2 °F 29.76 in Calm     72% 0.00 in WeatherDisplay:10.37 W/m2 SCT
04:30 64.4 °F 55.2 °F 29.75 in Calm     72% 0.00 in WeatherDisplay:10.37 W/m2 SCT
04:45 64.4 °F 55.2 °F 29.74 in Calm     72% 0.00 in WeatherDisplay:10.37 W/m2 SCT
05:00 64.4 °F 55.2 °F 29.75 in Calm     72% 0.00 in WeatherDisplay:10.37 W/m2 SCT
05:15 64.4 °F 55.2 °F 29.76 in Calm     72% 0.00 in WeatherDisplay:10.37 W/m2 SCT
05:30 64.4 °F 55.2 °F 29.76 in Calm     72% 0.00 in WeatherDisplay:10.37 W/m2 SCT
05:45 64.4 °F 55.2 °F 29.77 in Calm     72% 0.00 in WeatherDisplay:10.37 W/m2 SCT
06:00 64.4 °F 55.2 °F 29.77 in Calm     72% 0.00 in WeatherDisplay:10.37 W/m2 SCT
06:15 64.4 °F 55.2 °F 29.78 in Calm     72% 0.00 in WeatherDisplay:10.37 W/m2 SCT
06:30 64.4 °F 55.2 °F 29.78 in Calm     72% 0.00 in WeatherDisplay:10.37 W/m2 SCT
06:45 64.4 °F 55.2 °F 29.75 in Calm     72% 0.00 in WeatherDisplay:10.37 W/m2 SCT
07:00 64.4 °F 55.2 °F 29.73 in Calm     72% 0.00 in WeatherDisplay:10.37 W/m2 SCT
07:15 64.4 °F 55.2 °F 29.78 in Calm     72% 0.00 in WeatherDisplay:10.37 W/m2 SCT
07:30 64.4 °F 55.2 °F 29.75 in Calm     72% 0.00 in WeatherDisplay:10.37 W/m2 SCT
07:45 64.4 °F 55.2 °F 29.77 in Calm     72% 0.00 in WeatherDisplay:10.37 W/m2 SCT
08:00 64.4 °F 55.2 °F 29.78 in Calm     72% 0.00 in WeatherDisplay:10.37 W/m2 SCT
08:15 64.4 °F 55.2 °F 29.77 in Calm     72% 0.00 in WeatherDisplay:10.37 W/m2 SCT
08:30 64.4 °F 55.2 °F 29.76 in Calm     72% 0.00 in WeatherDisplay:10.37 W/m2 SCT
08:45 64.4 °F 55.2 °F 29.77 in Calm     72% 0.00 in WeatherDisplay:10.37 W/m2 SCT
09:00 64.4 °F 55.2 °F 29.78 in Calm     72% 0.00 in WeatherDisplay:10.37 W/m2 SCT
09:15 64.4 °F 55.2 °F 29.78 in Calm     72% 0.00 in WeatherDisplay:10.37 W/m2 SCT
09:30 64.4 °F 55.2 °F 29.77 in Calm     72% 0.00 in WeatherDisplay:10.37 W/m2 SCT
09:45 64.4 °F 55.2 °F 29.78 in Calm     72% 0.00 in WeatherDisplay:10.37 W/m2 SCT
10:00 64.4 °F 55.2 °F 29.78 in Calm     72% 0.00 in WeatherDisplay:10.37 W/m2 SCT
10:15 64.4 °F 55.2 °F 29.78 in Calm     72% 0.00 in WeatherDisplay:10.37 W/m2 SCT
10:30 64.4 °F 55.2 °F 29.78 in Calm     72% 0.00 in WeatherDisplay:10.37 W/m2 SCT
10:45 64.4 °F 55.2 °F 29.78 in Calm     72% 0.00 in WeatherDisplay:10.37 W/m2 SCT
11:00 64.4 °F 55.2 °F 29.79 in Calm     72% 0.00 in WeatherDisplay:10.37 W/m2 SCT
11:15 64.4 °F 55.2 °F 29.79 in Calm     72% 0.00 in WeatherDisplay:10.37 W/m2 SCT
11:30 64.4 °F 55.2 °F 29.80 in Calm     72% 0.00 in WeatherDisplay:10.37 W/m2 SCT
11:45 64.4 °F 55.2 °F 29.81 in Calm     72% 0.00 in WeatherDisplay:10.37 W/m2 SCT
12:00 64.4 °F 55.2 °F 29.79 in Calm     72% 0.00 in WeatherDisplay:10.37 W/m2 SCT
12:15 64.4 °F 55.2 °F 29.79 in Calm     72% 0.00 in WeatherDisplay:10.37 W/m2 SCT
12:30 64.4 °F 55.2 °F 29.81 in Calm     72% 0.00 in WeatherDisplay:10.37 W/m2 SCT
12:45 64.4 °F 55.2 °F 29.81 in Calm     72% 0.00 in WeatherDisplay:10.37 W/m2 SCT
13:00 70.5 °F 67.1 °F 29.80 in Calm   3.0 mph 89% 0.00 in WeatherDisplay:10.37 W/m2 SCT
13:15 71.2 °F 67.8 °F 29.78 in Calm   3.0 mph 89% 0.00 in WeatherDisplay:10.37 W/m2 SCT
13:30 71.9 °F 67.8 °F 29.78 in Calm   3.0 mph 87% 0.00 in WeatherDisplay:10.37 W/m2 SCT
13:45 72.8 °F 68.0 °F 29.78 in Calm   3.0 mph 85% 0.00 in WeatherDisplay:10.37 W/m2 SCT
14:00 73.6 °F 68.1 °F 29.78 in Calm   3.0 mph 83% 0.00 in WeatherDisplay:10.37 W/m2 SCT
14:15 74.0 °F 68.8 °F 29.79 in Calm   3.0 mph 84% 0.00 in WeatherDisplay:10.37 W/m2 SCT
14:30 74.4 °F 68.9 °F 29.79 in NW 1.0 mph 3.0 mph 83% 0.00 in WeatherDisplay:10.37 W/m2 SCT
14:45 75.8 °F 69.2 °F 29.78 in NW 1.0 mph 2.0 mph 80% 0.00 in WeatherDisplay:10.37 W/m2 SCT
15:00 76.1 °F 69.1 °F 29.77 in Calm   5.0 mph 79% 0.00 in WeatherDisplay:10.37 W/m2 SCT
15:15 76.7 °F 69.3 °F 29.77 in NW 1.0 mph 3.0 mph 78% 0.00 in WeatherDisplay:10.37 W/m2 SCT
15:30 77.8 °F 69.6 °F 29.77 in Calm   2.0 mph 76% 0.00 in WeatherDisplay:10.37 W/m2 SCT
15:45 78.4 °F 69.5 °F 29.77 in Calm   5.0 mph 74% 0.00 in WeatherDisplay:10.37 W/m2 SCT
16:00 77.7 °F 68.3 °F 29.78 in Calm   2.0 mph 73% 0.00 in WeatherDisplay:10.37 W/m2 SCT
16:15 77.9 °F 68.5 °F 29.78 in NW 1.0 mph 3.0 mph 73% 0.00 in WeatherDisplay:10.37 W/m2 SCT
16:30 75.6 °F 69.4 °F 29.79 in Calm   5.0 mph 81% 0.01 in WeatherDisplay:10.37 W/m2 SCT
16:45 74.7 °F 69.9 °F 29.79 in Calm   1.0 mph 85% 0.00 in WeatherDisplay:10.37 W/m2 SCT
17:00 75.1 °F 69.9 °F 29.79 in Calm   1.0 mph 84% 0.00 in WeatherDisplay:10.37 W/m2 SCT
17:15 76.2 °F 69.9 °F 29.79 in Calm   1.0 mph 81% 0.00 in WeatherDisplay:10.37 W/m2 SCT
17:30 76.4 °F 69.8 °F 29.78 in Calm   1.0 mph 80% 0.00 in WeatherDisplay:10.37 W/m2 SCT
17:45 77.1 °F 68.9 °F 29.79 in Calm   1.0 mph 76% 0.00 in WeatherDisplay:10.37 W/m2 SCT
18:00 77.8 °F 70.1 °F 29.80 in Calm   2.0 mph 77% 0.00 in WeatherDisplay:10.37 W/m2 SCT
18:15 77.9 °F 68.9 °F 29.80 in Calm   1.0 mph 74% 0.00 in WeatherDisplay:10.37 W/m2 SCT
18:30 76.7 °F 67.0 °F 29.80 in Calm   1.0 mph 72% 0.00 in WeatherDisplay:10.37 W/m2 SCT
18:45 75.7 °F 64.8 °F 29.80 in Calm   2.0 mph 69% 0.00 in WeatherDisplay:10.37 W/m2 SCT
19:00 75.0 °F 62.4 °F 29.80 in Calm   1.0 mph 65% 0.00 in WeatherDisplay:10.37 W/m2 SCT
19:15 74.5 °F 62.4 °F 29.81 in Calm   1.0 mph 66% 0.00 in WeatherDisplay:10.37 W/m2 SCT
19:30 73.5 °F 63.1 °F 29.81 in Calm     70% 0.00 in WeatherDisplay:10.37 W/m2 SCT
19:45 72.5 °F 62.9 °F 29.81 in Calm   1.0 mph 72% 0.00 in WeatherDisplay:10.37 W/m2 SCT
20:00 71.5 °F 62.4 °F 29.81 in Calm     73% 0.00 in WeatherDisplay:10.37 W/m2 SCT
20:15 70.6 °F 60.7 °F 29.82 in Calm     71% 0.00 in WeatherDisplay:10.37 W/m2 SCT
20:30 69.8 °F 61.1 °F 29.84 in Calm     74% 0.00 in WeatherDisplay:10.37 W/m2 SCT
20:45 69.1 °F 60.0 °F 29.84 in Calm     73% 0.00 in WeatherDisplay:10.37 W/m2 SCT
21:00 68.4 °F 60.2 °F 29.84 in Calm     75% 0.00 in WeatherDisplay:10.37 W/m2 SCT
21:15 67.8 °F 60.3 °F 29.85 in Calm     77% 0.00 in WeatherDisplay:10.37 W/m2 SCT
21:30 67.1 °F 60.7 °F 29.85 in Calm     80% 0.00 in WeatherDisplay:10.37 W/m2 SCT
21:45 66.2 °F 60.2 °F 29.85 in Calm     81% 0.00 in WeatherDisplay:10.37 W/m2 SCT
22:00 65.4 °F 60.1 °F 29.86 in Calm     83% 0.00 in WeatherDisplay:10.37 W/m2 SCT
22:15 64.7 °F 59.8 °F 29.87 in Calm     84% 0.00 in WeatherDisplay:10.37 W/m2 SCT
22:30 63.8 °F 59.2 °F 29.88 in Calm     85% 0.00 in WeatherDisplay:10.37 W/m2 SCT
22:45 64.3 °F 60.0 °F 29.89 in Calm     86% 0.00 in WeatherDisplay:10.37 W/m2 SCT
23:00 64.2 °F 59.6 °F 29.89 in Calm     85% 0.00 in WeatherDisplay:10.37 W/m2 SCT
23:15 63.8 °F 59.6 °F 29.89 in Calm     86% 0.00 in WeatherDisplay:10.37 W/m2 SCT
23:30 63.1 °F 58.9 °F 29.90 in Calm     86% 0.00 in WeatherDisplay:10.37 W/m2 SCT
23:45 62.5 °F 58.9 °F 29.89 in Calm     88% 0.00 in WeatherDisplay:10.37 W/m2 SCT
Piedmont Bend
Compliments of Weather Underground - 4 mb